createdAt,value
2018-12-22T00:01:00.827Z,12.15
2018-12-22T00:03:28.359Z,12.20
2018-12-22T00:05:55.813Z,12.21
2018-12-22T00:08:23.223Z,12.22
2018-12-22T00:10:51.056Z,12.25
2018-12-22T00:13:18.629Z,12.28
2018-12-22T00:15:46.031Z,12.31
2018-12-22T00:18:13.441Z,12.37
2018-12-22T00:20:41.078Z,12.33
2018-12-22T00:23:09.077Z,12.37
2018-12-22T00:25:36.501Z,12.42
2018-12-22T00:28:03.923Z,12.44
2018-12-22T00:30:31.360Z,12.41
2018-12-22T00:32:58.964Z,12.36
2018-12-22T00:35:27.234Z,12.31
2018-12-22T00:37:54.712Z,12.23
2018-12-22T00:40:22.067Z,12.23
2018-12-22T00:42:49.456Z,12.22
2018-12-22T00:45:17.320Z,12.24
2018-12-22T00:47:44.773Z,12.31
2018-12-22T00:50:12.180Z,12.38
2018-12-22T00:52:39.732Z,12.46
2018-12-22T00:55:07.252Z,12.48
2018-12-22T00:57:34.711Z,12.46
2018-12-22T01:00:02.140Z,12.46
2018-12-22T01:02:29.540Z,12.50
2018-12-22T01:04:56.936Z,12.47
2018-12-22T01:07:25.998Z,12.35
2018-12-22T01:09:53.716Z,12.25
2018-12-22T01:12:21.197Z,12.17
2018-12-22T01:14:48.609Z,12.06
2018-12-22T01:17:16.021Z,12.02
2018-12-22T01:19:43.459Z,11.97
2018-12-22T01:22:10.851Z,11.90
2018-12-22T01:24:38.268Z,11.85
2018-12-22T01:27:05.667Z,11.79
2018-12-22T01:29:33.095Z,11.81
2018-12-22T01:32:00.500Z,11.87
2018-12-22T01:34:28.951Z,11.91
2018-12-22T01:36:56.336Z,11.96
2018-12-22T01:39:23.773Z,12.00
2018-12-22T01:41:51.350Z,12.05
2018-12-22T01:44:18.810Z,12.15
2018-12-22T01:46:46.298Z,12.25
2018-12-22T01:49:13.707Z,12.33
2018-12-22T01:51:41.161Z,12.36
2018-12-22T01:54:08.734Z,12.40
2018-12-22T01:56:36.150Z,12.45
2018-12-22T01:59:03.553Z,12.55
2018-12-22T02:01:30.956Z,12.65
2018-12-22T02:03:58.353Z,12.68
2018-12-22T02:06:27.014Z,12.69
2018-12-22T02:08:54.455Z,12.71
2018-12-22T02:11:21.842Z,12.69
2018-12-22T02:13:49.265Z,12.79
2018-12-22T02:16:16.695Z,12.86
2018-12-22T02:18:44.102Z,12.94
2018-12-22T02:21:11.775Z,12.99
2018-12-22T02:23:39.253Z,13.03
2018-12-22T02:26:06.650Z,13.09
2018-12-22T02:28:34.223Z,13.18
2018-12-22T02:31:02.410Z,13.25
2018-12-22T02:33:29.866Z,13.30
2018-12-22T02:35:57.288Z,13.35
2018-12-22T02:38:24.751Z,13.32
2018-12-22T02:40:52.146Z,13.34
2018-12-22T02:43:19.575Z,13.33
2018-12-22T02:45:47.491Z,13.31
2018-12-22T02:48:15.386Z,13.26
2018-12-22T02:50:42.789Z,13.10
2018-12-22T02:53:10.196Z,12.93
2018-12-22T02:55:37.630Z,12.72
2018-12-22T02:58:05.063Z,12.53
2018-12-22T03:00:32.463Z,12.40
2018-12-22T03:02:59.865Z,12.27
2018-12-22T03:05:27.995Z,12.22
2018-12-22T03:07:55.565Z,12.16
2018-12-22T03:10:22.967Z,12.16
2018-12-22T03:12:50.384Z,12.15
2018-12-22T03:15:17.792Z,12.15
2018-12-22T03:17:45.647Z,12.14
2018-12-22T03:20:13.093Z,12.16
2018-12-22T03:22:40.539Z,12.19
2018-12-22T03:25:08.201Z,12.27
2018-12-22T03:27:35.605Z,12.46
2018-12-22T03:30:03.210Z,12.58
2018-12-22T03:32:30.442Z,12.65
2018-12-22T03:34:57.847Z,12.65
2018-12-22T03:37:25.256Z,12.66
2018-12-22T03:39:52.672Z,12.66
2018-12-22T03:42:20.606Z,12.60
2018-12-22T03:44:48.022Z,12.52
2018-12-22T03:47:15.415Z,12.48
2018-12-22T03:49:42.841Z,12.36
2018-12-22T03:52:10.956Z,12.31
2018-12-22T03:54:38.366Z,12.31
2018-12-22T03:57:05.779Z,12.27
2018-12-22T03:59:33.205Z,12.32
2018-12-22T04:02:01.569Z,12.38
2018-12-22T04:04:28.968Z,12.47
2018-12-22T04:06:56.387Z,12.53
2018-12-22T04:09:23.937Z,12.55
2018-12-22T04:11:51.334Z,12.58
2018-12-22T04:14:18.756Z,12.58
2018-12-22T04:16:46.147Z,12.58
2018-12-22T04:19:13.604Z,12.55
2018-12-22T04:21:42.842Z,12.54
2018-12-22T04:24:10.299Z,12.48
2018-12-22T04:26:37.927Z,12.42
2018-12-22T04:29:05.367Z,12.37
2018-12-22T04:31:33.829Z,12.39
2018-12-22T04:34:01.232Z,12.45
2018-12-22T04:36:28.640Z,12.45
2018-12-22T04:38:56.069Z,12.45
2018-12-22T04:41:23.484Z,12.46
2018-12-22T04:43:50.883Z,12.46
2018-12-22T04:46:18.280Z,12.49
2018-12-22T04:48:45.687Z,12.50
2018-12-22T04:51:13.087Z,12.47
2018-12-22T04:53:40.525Z,12.42
2018-12-22T04:56:08.022Z,12.44
2018-12-22T04:58:35.427Z,12.41
2018-12-22T05:01:02.997Z,12.41
2018-12-22T05:03:30.395Z,12.45
2018-12-22T05:05:57.814Z,12.43
2018-12-22T05:08:25.684Z,12.45
2018-12-22T05:10:53.164Z,12.50
2018-12-22T05:13:21.012Z,12.61
2018-12-22T05:15:48.415Z,12.69
2018-12-22T05:18:15.948Z,12.68
2018-12-22T05:20:43.364Z,12.58
2018-12-22T05:23:10.771Z,12.53
2018-12-22T05:25:38.184Z,12.57
2018-12-22T05:28:05.629Z,12.58
2018-12-22T05:30:33.363Z,12.46
2018-12-22T05:33:00.775Z,12.42
2018-12-22T05:35:28.178Z,12.43
2018-12-22T05:37:55.575Z,12.42
2018-12-22T05:40:23.455Z,12.38
2018-12-22T05:42:51.819Z,12.37
2018-12-22T05:45:19.275Z,12.36
2018-12-22T05:47:46.684Z,12.36
2018-12-22T05:50:14.090Z,12.42
2018-12-22T05:52:41.770Z,12.46
2018-12-22T05:55:09.278Z,12.51
2018-12-22T05:57:36.753Z,12.51
2018-12-22T06:00:04.159Z,12.51
2018-12-22T06:02:31.574Z,12.49
2018-12-22T06:04:58.987Z,12.48
2018-12-22T06:07:26.386Z,12.49
2018-12-22T06:09:53.817Z,12.50
2018-12-22T06:12:21.207Z,12.47
2018-12-22T06:14:48.617Z,12.48
2018-12-22T06:17:16.015Z,12.52
2018-12-22T06:19:43.635Z,12.52
2018-12-22T06:22:11.023Z,12.59
2018-12-22T06:24:38.467Z,12.70
2018-12-22T06:27:05.898Z,12.83
2018-12-22T06:29:33.311Z,12.89
2018-12-22T06:32:00.708Z,13.04
2018-12-22T06:34:28.198Z,13.12
2018-12-22T06:36:56.266Z,13.08
2018-12-22T06:39:23.661Z,13.03
2018-12-22T06:41:51.072Z,13.03
2018-12-22T06:44:18.529Z,13.04
2018-12-22T06:46:45.993Z,13.06
2018-12-22T06:49:13.962Z,13.05
2018-12-22T06:51:41.460Z,13.05
2018-12-22T06:54:08.860Z,13.04
2018-12-22T06:56:36.266Z,13.05
2018-12-22T06:59:03.753Z,13.06
2018-12-22T07:01:31.183Z,13.05
2018-12-22T07:03:58.598Z,13.03
2018-12-22T07:06:26.024Z,12.95
2018-12-22T07:08:53.419Z,12.84
2018-12-22T07:11:20.845Z,12.77
2018-12-22T07:13:48.295Z,12.73
2018-12-22T07:16:15.702Z,12.66
2018-12-22T07:18:43.202Z,12.56
2018-12-22T07:21:10.591Z,12.43
2018-12-22T07:23:38.130Z,12.36
2018-12-22T07:26:05.543Z,12.24
2018-12-22T07:28:32.957Z,12.17
2018-12-22T07:31:00.351Z,12.07
2018-12-22T07:33:27.774Z,12.04
2018-12-22T07:35:55.433Z,11.98
2018-12-22T07:38:22.854Z,11.90
2018-12-22T07:40:50.718Z,11.82
2018-12-22T07:43:18.181Z,11.78
2018-12-22T07:45:45.847Z,11.74
2018-12-22T07:48:13.256Z,11.73
2018-12-22T07:50:40.659Z,11.66
2018-12-22T07:53:08.063Z,11.59
2018-12-22T07:55:35.464Z,11.54
2018-12-22T07:58:02.858Z,11.51
2018-12-22T08:00:34.829Z,11.47
2018-12-22T08:02:58.870Z,11.43
2018-12-22T08:05:26.270Z,11.37
2018-12-22T08:07:53.740Z,11.35
2018-12-22T08:10:21.989Z,11.37
2018-12-22T08:12:49.380Z,11.37
2018-12-22T08:15:16.792Z,11.29
2018-12-22T08:17:44.194Z,11.26
2018-12-22T08:20:11.616Z,11.28
2018-12-22T08:22:39.015Z,11.34
2018-12-22T08:25:06.496Z,11.38
2018-12-22T08:27:34.712Z,11.45
2018-12-22T08:30:02.158Z,11.49
2018-12-22T08:32:29.567Z,11.57
2018-12-22T08:34:56.986Z,11.64
2018-12-22T08:37:24.404Z,11.71
2018-12-22T08:39:51.818Z,11.72
2018-12-22T08:42:19.323Z,11.71
2018-12-22T08:44:46.723Z,11.99
2018-12-22T08:47:15.175Z,12.23
2018-12-22T08:49:43.342Z,12.53
2018-12-22T08:52:10.785Z,12.96
2018-12-22T08:54:38.197Z,13.59
2018-12-22T08:57:05.701Z,13.97
2018-12-22T08:59:33.155Z,13.80
2018-12-22T09:02:00.555Z,13.69
2018-12-22T09:04:28.128Z,13.70
2018-12-22T09:06:55.555Z,13.83
2018-12-22T09:09:22.992Z,14.18
2018-12-22T09:11:50.440Z,14.73
2018-12-22T09:14:17.387Z,14.85
2018-12-22T09:16:44.337Z,14.81
2018-12-22T09:19:11.773Z,14.64
2018-12-22T09:21:39.333Z,14.36
2018-12-22T09:24:06.743Z,14.19
2018-12-22T09:26:34.173Z,14.09
2018-12-22T09:29:01.559Z,14.03
2018-12-22T09:31:29.219Z,13.92
2018-12-22T09:33:56.885Z,13.81
2018-12-22T09:36:24.678Z,13.83
2018-12-22T09:38:52.075Z,13.91
2018-12-22T09:41:19.844Z,14.07
2018-12-22T09:43:47.291Z,14.23
2018-12-22T09:46:14.710Z,14.33
2018-12-22T09:48:42.127Z,14.52
2018-12-22T09:51:10.382Z,14.54
2018-12-22T09:53:37.834Z,14.52
2018-12-22T09:56:05.283Z,14.48
2018-12-22T09:58:32.864Z,14.35
2018-12-22T10:01:00.287Z,14.19
2018-12-22T10:03:27.710Z,14.16
2018-12-22T10:05:55.101Z,14.10
2018-12-22T10:08:22.503Z,13.94
2018-12-22T10:10:50.015Z,13.80
2018-12-22T10:13:17.499Z,13.72
2018-12-22T10:15:44.471Z,13.75
2018-12-22T10:18:11.901Z,13.80
2018-12-22T10:20:38.860Z,13.89
2018-12-22T10:23:06.584Z,13.93
2018-12-22T10:25:34.022Z,13.94
2018-12-22T10:28:01.479Z,13.98
2018-12-22T10:30:28.916Z,14.02
2018-12-22T10:32:56.384Z,14.03
2018-12-22T10:35:25.665Z,13.98
2018-12-22T10:37:53.069Z,13.97
2018-12-22T10:40:20.482Z,13.88
2018-12-22T10:42:47.940Z,13.88
2018-12-22T10:45:15.334Z,13.96
2018-12-22T10:47:42.902Z,14.01
2018-12-22T10:50:10.387Z,14.06
2018-12-22T10:52:37.793Z,13.99
2018-12-22T10:55:04.733Z,14.00
2018-12-22T10:57:32.167Z,14.03
2018-12-22T10:59:59.590Z,14.02
2018-12-22T11:02:26.993Z,14.03
2018-12-22T11:04:54.383Z,14.02
2018-12-22T11:07:21.811Z,13.98
2018-12-22T11:09:48.782Z,13.95
2018-12-22T11:12:16.342Z,13.92
2018-12-22T11:14:43.723Z,13.90
2018-12-22T11:17:11.160Z,13.89
2018-12-22T11:19:38.535Z,13.91
2018-12-22T11:22:05.975Z,13.91
2018-12-22T11:24:33.455Z,13.84
2018-12-22T11:27:00.856Z,13.82
2018-12-22T11:29:28.289Z,13.81
2018-12-22T11:31:55.721Z,13.84
2018-12-22T11:34:23.182Z,13.87
2018-12-22T11:36:50.636Z,14.06
2018-12-22T11:39:18.098Z,14.23
2018-12-22T11:41:45.441Z,14.33
2018-12-22T11:44:12.983Z,14.42
2018-12-22T11:46:40.396Z,14.45
2018-12-22T11:49:07.978Z,14.53
2018-12-22T11:51:35.422Z,14.81
2018-12-22T11:54:02.851Z,14.85
2018-12-22T11:56:30.264Z,14.79
2018-12-22T11:58:58.236Z,14.78
2018-12-22T12:01:25.865Z,14.86
2018-12-22T12:03:53.284Z,14.96
2018-12-22T12:06:20.318Z,15.09
2018-12-22T12:08:47.261Z,15.13
2018-12-22T12:11:14.229Z,15.02
2018-12-22T12:13:41.651Z,14.95
2018-12-22T12:16:09.087Z,15.07
2018-12-22T12:18:42.563Z,14.99
2018-12-22T12:21:09.971Z,14.98
2018-12-22T12:23:37.079Z,15.59
2018-12-22T12:26:04.052Z,15.41
2018-12-22T12:28:31.682Z,15.11
2018-12-22T12:30:58.627Z,14.92
2018-12-22T12:33:25.585Z,14.75
2018-12-22T12:35:52.859Z,14.60
2018-12-22T12:38:19.868Z,14.62
2018-12-22T12:40:46.868Z,14.56
2018-12-22T12:43:13.827Z,14.56
2018-12-22T12:45:41.391Z,14.61
2018-12-22T12:48:08.359Z,14.64
2018-12-22T12:50:35.344Z,14.64
2018-12-22T12:53:09.639Z,14.58
2018-12-22T12:55:29.581Z,14.56
2018-12-22T12:57:56.527Z,14.54
2018-12-22T13:00:23.578Z,14.51
2018-12-22T13:02:50.663Z,14.49
2018-12-22T13:05:18.171Z,14.47
2018-12-22T13:07:45.117Z,14.45
2018-12-22T13:10:12.055Z,14.41
2018-12-22T13:12:54.688Z,14.37
2018-12-22T13:15:23.542Z,14.27
2018-12-22T13:17:49.145Z,14.27
2018-12-22T13:20:16.721Z,14.17
2018-12-22T13:22:44.303Z,14.06
2018-12-22T13:25:11.797Z,14.06
2018-12-22T13:27:39.199Z,14.04
2018-12-22T13:30:09.005Z,14.05
2018-12-22T13:32:36.615Z,14.09
2018-12-22T13:35:04.026Z,14.26
2018-12-22T13:37:30.985Z,14.39
2018-12-22T13:39:58.384Z,14.49
2018-12-22T13:42:25.343Z,14.55
2018-12-22T13:44:52.290Z,14.70
2018-12-22T13:47:19.477Z,14.65
2018-12-22T13:49:46.699Z,14.66
2018-12-22T13:52:13.498Z,14.55
2018-12-22T13:54:40.453Z,14.40
2018-12-22T13:57:07.870Z,14.27
2018-12-22T13:59:34.818Z,14.15
2018-12-22T14:02:01.774Z,14.09
2018-12-22T14:04:29.186Z,14.01
2018-12-22T14:06:56.617Z,14.01
2018-12-22T14:09:24.003Z,14.00
2018-12-22T14:11:51.420Z,13.98
2018-12-22T14:14:18.474Z,13.98
2018-12-22T14:16:45.432Z,13.95
2018-12-22T14:19:12.904Z,13.99
2018-12-22T14:21:39.946Z,14.00
2018-12-22T14:24:09.801Z,13.99
2018-12-22T14:26:37.243Z,13.92
2018-12-22T14:29:04.651Z,13.83
2018-12-22T14:31:32.077Z,13.71
2018-12-22T14:34:02.271Z,13.69
2018-12-22T14:36:29.723Z,13.64
2018-12-22T14:38:57.159Z,13.64
2018-12-22T14:41:24.754Z,13.64
2018-12-22T14:43:52.158Z,13.51
2018-12-22T14:46:19.596Z,13.46
2018-12-22T14:48:46.547Z,13.40
2018-12-22T14:51:14.017Z,13.39
2018-12-22T14:53:40.967Z,13.42
2018-12-22T14:56:07.970Z,13.45
2018-12-22T14:58:35.144Z,13.45
2018-12-22T15:01:02.030Z,13.50
2018-12-22T15:03:29.000Z,13.54
2018-12-22T15:05:56.047Z,13.55
2018-12-22T15:08:22.989Z,13.55
2018-12-22T15:10:49.957Z,13.52
2018-12-22T15:13:17.504Z,13.52
2018-12-22T15:15:44.683Z,13.50
2018-12-22T15:18:11.630Z,13.48
2018-12-22T15:20:38.594Z,13.42
2018-12-22T15:23:05.676Z,13.35
2018-12-22T15:25:33.094Z,13.30
2018-12-22T15:28:00.103Z,13.24
2018-12-22T15:30:27.110Z,13.22
2018-12-22T15:32:54.941Z,13.24
2018-12-22T15:35:21.061Z,13.21
2018-12-22T15:37:48.006Z,13.19
2018-12-22T15:40:14.967Z,13.21
2018-12-22T15:42:41.959Z,13.23
2018-12-22T15:45:10.764Z,13.21
2018-12-22T15:47:37.796Z,13.17
2018-12-22T15:50:04.810Z,13.05
2018-12-22T15:52:31.812Z,13.06
2018-12-22T15:54:58.922Z,13.03
2018-12-22T15:57:25.997Z,12.96
2018-12-22T15:59:52.995Z,12.91
2018-12-22T16:02:19.966Z,12.89
2018-12-22T16:04:46.910Z,12.89
2018-12-22T16:07:13.904Z,12.88
2018-12-22T16:09:40.864Z,12.87
2018-12-22T16:12:07.849Z,12.84
2018-12-22T16:14:34.776Z,12.80
2018-12-22T16:17:01.746Z,12.78
2018-12-22T16:19:28.697Z,12.82
2018-12-22T16:21:55.637Z,12.82
2018-12-22T16:24:22.730Z,12.82
2018-12-22T16:26:49.799Z,12.78
2018-12-22T16:29:16.909Z,12.74
2018-12-22T16:31:44.324Z,12.76
2018-12-22T16:34:11.274Z,12.72
2018-12-22T16:36:38.231Z,12.69
2018-12-22T16:39:05.202Z,12.72
2018-12-22T16:41:32.150Z,12.71
2018-12-22T16:43:59.080Z,12.67
2018-12-22T16:46:26.085Z,12.68
2018-12-22T16:48:53.509Z,12.72
2018-12-22T16:51:20.908Z,12.73
2018-12-22T16:53:48.435Z,12.66
2018-12-22T16:56:15.406Z,12.65
2018-12-22T16:58:42.383Z,12.63
2018-12-22T17:01:18.524Z,12.65
2018-12-22T17:03:45.510Z,12.64
2018-12-22T17:06:12.476Z,12.63
2018-12-22T17:08:39.535Z,12.61
2018-12-22T17:11:06.511Z,12.62
2018-12-22T17:13:33.560Z,12.57
2018-12-22T17:16:00.528Z,12.50
2018-12-22T17:18:27.528Z,12.47
2018-12-22T17:20:54.484Z,12.45
2018-12-22T17:23:26.285Z,12.45
2018-12-22T17:25:53.231Z,12.46
2018-12-22T17:28:28.049Z,12.45
2018-12-22T17:30:47.159Z,12.48
2018-12-22T17:33:18.851Z,12.50
2018-12-22T17:35:41.116Z,12.53
2018-12-22T17:38:08.093Z,12.56
2018-12-22T17:40:35.044Z,12.62
2018-12-22T17:43:02.630Z,12.63
2018-12-22T17:45:31.850Z,12.66
2018-12-22T17:47:57.318Z,12.66
2018-12-22T17:50:25.071Z,12.69
2018-12-22T17:52:52.288Z,12.75
2018-12-22T17:55:19.228Z,12.78
2018-12-22T17:57:46.438Z,12.82
2018-12-22T18:00:13.394Z,12.86
2018-12-22T18:02:40.411Z,12.88
2018-12-22T18:05:07.364Z,12.86
2018-12-22T18:07:34.319Z,12.85
2018-12-22T18:10:01.296Z,12.83
2018-12-22T18:12:28.246Z,12.82
2018-12-22T18:14:55.288Z,12.82
2018-12-22T18:17:22.243Z,12.83
2018-12-22T18:19:50.016Z,12.80
2018-12-22T18:22:16.990Z,12.83
2018-12-22T18:24:44.083Z,12.78
2018-12-22T18:27:11.038Z,12.74
2018-12-22T18:29:37.983Z,12.73
2018-12-22T18:32:04.930Z,12.76
2018-12-22T18:34:31.882Z,12.78
2018-12-22T18:36:58.832Z,12.81
2018-12-22T18:39:25.820Z,12.82
2018-12-22T18:41:52.757Z,12.85
2018-12-22T18:44:19.751Z,12.90
2018-12-22T18:46:47.608Z,12.96
2018-12-22T18:49:14.633Z,12.98
2018-12-22T18:51:41.643Z,12.98
2018-12-22T18:54:08.611Z,12.96
2018-12-22T18:56:35.612Z,12.95
2018-12-22T18:59:02.583Z,12.93
2018-12-22T19:01:29.586Z,12.89
2018-12-22T19:03:57.957Z,12.87
2018-12-22T19:06:24.922Z,12.89
2018-12-22T19:08:51.888Z,12.92
2018-12-22T19:11:18.836Z,12.83
2018-12-22T19:13:45.807Z,12.65
2018-12-22T19:16:12.936Z,12.54
2018-12-22T19:18:39.887Z,12.44
2018-12-22T19:21:06.856Z,12.40
2018-12-22T19:23:33.778Z,12.37
2018-12-22T19:26:00.772Z,12.33
2018-12-22T19:28:27.718Z,12.30
2018-12-22T19:30:54.767Z,12.29
2018-12-22T19:33:21.735Z,12.31
2018-12-22T19:35:48.679Z,12.30
2018-12-22T19:38:17.151Z,12.33
2018-12-22T19:40:43.148Z,12.40
2018-12-22T19:43:10.299Z,12.46
2018-12-22T19:45:39.244Z,12.45
2018-12-22T19:48:05.677Z,12.38
2018-12-22T19:50:32.630Z,12.37
2018-12-22T19:52:59.852Z,12.40
2018-12-22T19:55:26.900Z,12.41
2018-12-22T19:57:53.876Z,12.41
2018-12-22T20:00:21.449Z,12.35
2018-12-22T20:05:33.882Z,12.18
2018-12-22T20:08:01.850Z,12.18
2018-12-22T20:10:28.835Z,12.21
2018-12-22T20:12:55.783Z,12.15
2018-12-22T20:15:22.738Z,12.07
2018-12-22T20:17:49.727Z,12.03
2018-12-22T20:20:16.910Z,12.00
2018-12-22T20:22:43.878Z,11.97
2018-12-22T20:25:10.823Z,11.99
2018-12-22T20:27:37.795Z,11.94
2018-12-22T20:30:04.734Z,11.84
2018-12-22T20:32:31.683Z,11.80
2018-12-22T20:34:58.657Z,11.77
2018-12-22T20:37:25.681Z,11.76
2018-12-22T20:39:52.668Z,11.75
2018-12-22T20:42:19.718Z,11.82
2018-12-22T20:44:46.685Z,11.89
2018-12-22T20:47:13.726Z,11.89
2018-12-22T20:49:40.699Z,11.88
2018-12-22T20:52:10.756Z,11.90
2018-12-22T20:54:37.726Z,11.90
2018-12-22T20:57:04.695Z,11.95
2018-12-22T20:59:32.397Z,11.98
2018-12-22T21:01:59.367Z,11.97
2018-12-22T21:04:26.893Z,12.01
2018-12-22T21:06:53.879Z,12.00
2018-12-22T21:09:20.922Z,11.97
2018-12-22T21:11:47.891Z,11.99
2018-12-22T21:14:16.274Z,11.94
2018-12-22T21:16:43.233Z,11.93
2018-12-22T21:19:10.275Z,12.01
2018-12-22T21:21:37.718Z,12.06
2018-12-22T21:24:04.784Z,12.08
2018-12-22T21:26:32.967Z,12.09
2018-12-22T21:28:59.899Z,12.12
2018-12-22T21:31:27.320Z,12.10
2018-12-22T21:33:54.282Z,12.04
2018-12-22T21:36:21.757Z,12.02
2018-12-22T21:38:48.732Z,12.03
2018-12-22T21:41:15.718Z,11.99
2018-12-22T21:43:43.162Z,11.97
2018-12-22T21:46:10.719Z,11.98
2018-12-22T21:48:38.177Z,11.99
2018-12-22T21:51:05.131Z,11.98
2018-12-22T21:53:32.101Z,11.97
2018-12-22T21:55:59.504Z,11.91
2018-12-22T21:58:27.090Z,11.92
2018-12-22T22:00:54.494Z,11.92
2018-12-22T22:03:23.742Z,11.93
2018-12-22T22:05:52.307Z,11.98
2018-12-22T22:08:19.770Z,12.04
2018-12-22T22:10:47.176Z,12.07
2018-12-22T22:13:14.588Z,12.07
2018-12-22T22:15:42.025Z,12.02
2018-12-22T22:18:10.476Z,12.04
2018-12-22T22:20:38.821Z,11.96
2018-12-22T22:23:06.248Z,11.96
2018-12-22T22:25:33.639Z,11.94
2018-12-22T22:28:01.199Z,11.83
2018-12-22T22:30:28.626Z,11.87
2018-12-22T22:32:56.113Z,11.86
2018-12-22T22:35:23.543Z,11.87
2018-12-22T22:37:50.985Z,11.86
2018-12-22T22:40:19.006Z,11.83
2018-12-22T22:42:46.410Z,11.83
2018-12-22T22:45:13.387Z,11.84
2018-12-22T22:47:40.866Z,11.80
2018-12-22T22:50:07.822Z,11.79
2018-12-22T22:52:34.841Z,11.80
2018-12-22T22:55:01.862Z,11.80
2018-12-22T22:57:29.279Z,11.77
2018-12-22T22:59:56.680Z,11.63
2018-12-22T23:02:24.185Z,11.57
2018-12-22T23:04:54.569Z,11.45
2018-12-22T23:07:18.974Z,11.41
2018-12-22T23:09:46.419Z,11.47
2018-12-22T23:12:13.816Z,11.50
2018-12-22T23:14:41.415Z,11.54
2018-12-22T23:17:08.861Z,11.57
2018-12-22T23:19:36.303Z,11.58
2018-12-22T23:22:03.680Z,11.56
2018-12-22T23:24:31.078Z,11.52
2018-12-22T23:26:58.495Z,11.42
2018-12-22T23:29:25.937Z,11.46
2018-12-22T23:31:53.360Z,11.42
2018-12-22T23:34:20.782Z,11.34
2018-12-22T23:36:48.555Z,11.41
2018-12-22T23:39:15.985Z,11.46
2018-12-22T23:41:43.389Z,11.54
2018-12-22T23:44:10.879Z,11.56
2018-12-22T23:46:38.396Z,11.53
2018-12-22T23:49:05.812Z,11.52
2018-12-22T23:51:33.228Z,11.51
2018-12-22T23:54:00.723Z,11.52
2018-12-22T23:56:28.178Z,11.51
2018-12-22T23:58:55.586Z,11.49
